Time;durP1;ratioP1;P1;durP2;ratioP2;P2;SDS_P1;SDS_P2;PMS_P1;PMS_P2;Temp;Humidity;BMP_temperature;BMP_pressure;BME280_temperature;BME280_humidity;BME280_pressure;Samples;Min_cycle;Max_cycle;Signal;HPM_P1;HPM_P2
2023/05/22 00:02:10;;;;;;;25.67;14.23;;;16.70;99.90;;;;;;6202136;23;20012;-94
2023/05/22 00:04:37;;;;;;;26.52;14.05;;;16.60;99.90;;;;;;6203249;23;20049;-93
2023/05/22 00:07:06;;;;;;;21.25;13.02;;;16.60;99.90;;;;;;6202749;23;20027;-95
2023/05/22 00:09:43;;;;;;;27.73;15.00;;;16.60;99.90;;;;;;6202087;23;20008;-94
2023/05/22 00:12:15;;;;;;;24.27;14.85;;;16.60;99.90;;;;;;6201475;22;20039;-95
2023/05/22 00:14:51;;;;;;;23.55;13.52;;;16.60;99.90;;;;;;6200952;23;20062;-95
2023/05/22 00:17:19;;;;;;;25.73;14.32;;;16.60;99.90;;;;;;6197761;23;20043;-95
2023/05/22 00:20:22;;;;;;;23.33;13.57;;;16.60;99.90;;;;;;6201829;23;20004;-94
2023/05/22 00:23:20;;;;;;;22.65;14.48;;;16.50;99.90;;;;;;6225616;23;20472;-94
2023/05/22 00:25:56;;;;;;;20.63;13.63;;;16.50;99.90;;;;;;6200357;23;20385;-94
2023/05/22 00:28:23;;;;;;;25.77;15.23;;;16.40;99.90;;;;;;6198285;23;20036;-94
2023/05/22 00:30:49;;;;;;;26.33;14.82;;;16.40;99.90;;;;;;6198818;23;20004;-94
2023/05/22 00:33:16;;;;;;;22.90;13.88;;;16.40;99.90;;;;;;6197191;23;20087;-95
2023/05/22 00:35:42;;;;;;;21.33;13.80;;;16.30;99.90;;;;;;6198154;23;20024;-94
2023/05/22 00:38:09;;;;;;;21.25;13.80;;;16.20;99.90;;;;;;6197569;23;20019;-94
2023/05/22 00:40:38;;;;;;;18.52;13.82;;;16.10;99.90;;;;;;6198127;23;20035;-94
2023/05/22 00:43:07;;;;;;;22.38;13.98;;;16.00;99.90;;;;;;6197860;23;20038;-94
2023/05/22 00:45:34;;;;;;;25.40;14.00;;;15.90;99.90;;;;;;6197612;23;20004;-94
2023/05/22 00:48:03;;;;;;;26.20;14.88;;;15.90;99.90;;;;;;6196687;23;20027;-94
2023/05/22 00:50:30;;;;;;;21.48;14.00;;;15.90;99.90;;;;;;6196637;23;20057;-94
2023/05/22 00:52:56;;;;;;;23.17;14.00;;;15.80;99.90;;;;;;6197133;23;20005;-95
2023/05/22 00:55:23;;;;;;;21.30;13.50;;;15.80;99.90;;;;;;6196867;23;20043;-94
2023/05/22 00:57:51;;;;;;;23.75;13.88;;;15.80;99.90;;;;;;6196627;23;20004;-94
2023/05/22 01:00:18;;;;;;;20.73;14.07;;;15.80;99.90;;;;;;6198247;23;20488;-94
2023/05/22 01:02:44;;;;;;;23.35;15.07;;;15.80;99.90;;;;;;6198742;23;20012;-94
2023/05/22 01:05:11;;;;;;;23.38;14.52;;;15.80;99.90;;;;;;6199381;23;20000;-94
2023/05/22 01:07:38;;;;;;;24.58;15.48;;;15.70;99.90;;;;;;6200694;23;20004;-94
2023/05/22 01:10:06;;;;;;;28.67;16.85;;;15.70;99.90;;;;;;6200070;23;20011;-94
2023/05/22 01:12:35;;;;;;;28.17;16.27;;;15.70;99.90;;;;;;6198558;23;20326;-94
2023/05/22 01:15:38;;;;;;;27.00;15.18;;;15.60;99.90;;;;;;6198916;23;20091;-94
2023/05/22 01:18:28;;;;;;;25.70;15.20;;;15.60;99.90;;;;;;6074741;23;20039;-93
2023/05/22 01:21:13;;;;;;;27.70;16.40;;;15.50;99.90;;;;;;6089748;23;20002;-95
2023/05/22 01:23:57;;;;;;;28.48;15.85;;;15.50;99.90;;;;;;6097236;23;20018;-94
2023/05/22 01:26:46;;;;;;;24.45;16.20;;;15.50;99.90;;;;;;6075419;23;20037;-93
2023/05/22 01:29:34;;;;;;;28.88;16.98;;;15.50;99.90;;;;;;5999627;23;20030;-94
2023/05/22 01:32:02;;;;;;;28.10;16.08;;;15.50;99.90;;;;;;6075164;23;20007;-95
2023/05/22 01:34:30;;;;;;;30.13;16.38;;;15.50;99.90;;;;;;6074646;23;20573;-94
2023/05/22 01:36:58;;;;;;;32.63;17.35;;;15.50;99.90;;;;;;6075210;23;20038;-94
2023/05/22 01:39:27;;;;;;;32.50;17.58;;;15.50;99.90;;;;;;6075105;23;20003;-94
2023/05/22 01:41:54;;;;;;;34.05;17.48;;;15.50;99.90;;;;;;6075510;23;20026;-94
2023/05/22 01:44:22;;;;;;;25.90;15.60;;;15.50;99.90;;;;;;6075120;23;20026;-94
2023/05/22 01:46:49;;;;;;;25.25;14.50;;;15.50;99.90;;;;;;6075190;23;20022;-94
2023/05/22 01:49:16;;;;;;;31.42;16.75;;;15.50;99.90;;;;;;6074926;23;20009;-94
2023/05/22 01:51:56;;;;;;;31.33;16.48;;;15.50;99.90;;;;;;6075166;23;20720;-94
2023/05/22 01:54:33;;;;;;;29.58;17.08;;;15.50;99.90;;;;;;6142123;23;20023;-94
2023/05/22 01:57:20;;;;;;;27.45;15.55;;;15.50;99.90;;;;;;6223128;23;20090;-95
2023/05/22 02:00:12;;;;;;;29.40;18.05;;;15.50;99.90;;;;;;6198318;23;20004;-95
2023/05/22 02:02:48;;;;;;;31.13;16.35;;;15.50;99.90;;;;;;6223832;23;20062;-95
2023/05/22 02:05:21;;;;;;;;;;;15.40;99.90;;;;;;6198806;23;20513;-94
2023/05/22 02:07:49;;;;;;;33.78;17.45;;;15.50;99.90;;;;;;6223214;23;19903;-94
2023/05/22 02:10:19;;;;;;;30.25;17.80;;;15.50;99.90;;;;;;6197981;23;20074;-94
2023/05/22 02:12:46;;;;;;;32.35;17.73;;;15.50;99.90;;;;;;6197372;23;20060;-94
2023/05/22 02:15:14;;;;;;;31.58;16.85;;;15.50;99.90;;;;;;6197910;23;20000;-94
2023/05/22 02:17:41;;;;;;;29.48;16.30;;;15.60;99.90;;;;;;6198373;23;20012;-94
2023/05/22 02:20:15;;;;;;;32.05;17.23;;;15.50;99.90;;;;;;6198449;23;20004;-94
2023/05/22 02:22:46;;;;;;;33.15;17.60;;;15.50;99.90;;;;;;6198390;23;20012;-94
2023/05/22 02:25:15;;;;;;;30.15;16.65;;;15.50;99.90;;;;;;6196859;23;20036;-93
2023/05/22 02:27:46;;;;;;;27.33;16.92;;;15.50;99.90;;;;;;6198159;23;20387;-94
2023/05/22 02:30:14;;;;;;;33.72;18.15;;;15.50;99.90;;;;;;6197043;23;20016;-93
2023/05/22 02:32:42;;;;;;;30.20;17.17;;;15.50;99.90;;;;;;6198232;23;20007;-95
2023/05/22 02:35:09;;;;;;;36.05;17.35;;;15.50;99.90;;;;;;6197574;23;20016;-94
2023/05/22 02:37:35;;;;;;;31.50;16.17;;;15.50;99.90;;;;;;6198447;23;20004;-94
2023/05/22 02:40:06;;;;;;;32.60;17.13;;;15.50;99.90;;;;;;6197942;23;20022;-94
2023/05/22 02:42:33;;;;;;;34.72;16.83;;;15.50;99.90;;;;;;6197746;23;20008;-94
2023/05/22 02:45:05;;;;;;;30.58;16.83;;;15.60;99.90;;;;;;6197750;23;20008;-94
2023/05/22 02:47:31;;;;;;;40.20;18.35;;;15.60;99.90;;;;;;6197506;23;20032;-95
2023/05/22 02:49:58;;;;;;;35.40;16.85;;;15.50;99.90;;;;;;6197023;23;20107;-93
2023/05/22 02:52:27;;;;;;;28.77;16.45;;;15.60;99.90;;;;;;6197785;23;20008;-94
2023/05/22 02:54:53;;;;;;;35.30;17.90;;;15.60;99.90;;;;;;6197685;23;20012;-94
2023/05/22 02:57:21;;;;;;;32.50;18.55;;;15.60;99.90;;;;;;6222514;23;20012;-95
2023/05/22 02:59:48;;;;;;;38.55;17.25;;;15.60;99.90;;;;;;6197152;23;20514;-94
2023/05/22 03:02:18;;;;;;;38.85;17.20;;;15.50;99.90;;;;;;6222645;23;20097;-93
2023/05/22 03:04:48;;;;;;;23.30;15.07;;;15.50;99.90;;;;;;6197056;23;20008;-94
2023/05/22 03:07:20;;;;;;;32.20;16.33;;;15.60;99.90;;;;;;6208919;22;20027;-95
2023/05/22 03:09:46;;;;;;;33.08;15.57;;;15.60;99.90;;;;;;6248567;23;20011;-95
2023/05/22 03:12:13;;;;;;;37.63;17.70;;;15.60;99.90;;;;;;6204235;23;20033;-94
2023/05/22 03:14:40;;;;;;;34.75;18.40;;;15.60;99.90;;;;;;6223229;23;20004;-94
2023/05/22 03:17:10;;;;;;;38.50;17.60;;;15.70;99.90;;;;;;6223483;23;20087;-94
2023/05/22 03:19:36;;;;;;;31.60;17.35;;;15.70;99.90;;;;;;6223635;23;20015;-94
2023/05/22 03:22:06;;;;;;;40.58;16.63;;;15.70;99.90;;;;;;6199132;23;20078;-93
2023/05/22 03:25:24;;;;;;;;;;;;;;;;;;;;;
2023/05/22 03:28:35;;;;;;;27.48;17.08;;;15.80;99.90;;;;;;6100775;23;20090;-95
2023/05/22 03:31:34;;;;;;;26.60;15.18;;;15.80;99.90;;;;;;6051534;23;20007;-95
2023/05/22 03:34:23;;;;;;;31.73;16.38;;;15.80;99.90;;;;;;6052758;23;20038;-93
2023/05/22 03:37:32;;;;;;;29.27;15.70;;;15.80;99.90;;;;;;6076535;23;20014;-95
2023/05/22 03:40:38;;;;;;;32.10;16.83;;;15.70;99.90;;;;;;5965807;23;20012;-95
2023/05/22 03:43:12;;;;;;;29.90;16.20;;;15.70;99.90;;;;;;5962572;24;20016;-95
2023/05/22 03:45:46;;;;;;;29.60;16.17;;;15.70;99.90;;;;;;5960757;24;20016;-95
2023/05/22 03:48:16;;;;;;;32.00;16.95;;;15.70;99.90;;;;;;5961694;24;20008;-95
2023/05/22 03:50:44;;;;;;;25.98;15.65;;;15.80;99.90;;;;;;5960020;24;20355;-94
2023/05/22 03:53:14;;;;;;;32.17;17.80;;;15.80;99.90;;;;;;5960303;24;20077;-94
2023/05/22 03:55:41;;;;;;;30.10;17.50;;;15.80;99.90;;;;;;5961394;24;20447;-95
2023/05/22 03:58:08;;;;;;;28.88;15.60;;;15.80;99.90;;;;;;5960004;24;20016;-94
2023/05/22 04:00:36;;;;;;;25.63;15.85;;;15.80;99.90;;;;;;5959624;24;20016;-94
2023/05/22 04:03:04;;;;;;;33.70;16.75;;;15.80;99.90;;;;;;5959772;24;20485;-94
2023/05/22 04:05:31;;;;;;;36.28;17.70;;;15.80;99.90;;;;;;5964957;23;20011;-94
2023/05/22 04:07:57;;;;;;;37.53;17.63;;;15.80;99.90;;;;;;6011411;23;20012;-94
2023/05/22 04:10:55;;;;;;;;;;;;;;;;;;;;;
2023/05/22 04:33:00;;;;;;;39.50;17.92;;;16.00;99.90;;;;;;6255498;22;20026;-94
2023/05/22 04:46:19;;;;;;;36.38;18.05;;;16.40;99.90;;;;;;6277337;22;19922;-95
2023/05/22 05:26:31;;;;;;;36.22;18.45;;;17.50;99.90;;;;;;6244502;22;20028;-94
2023/05/22 05:29:38;;;;;;;33.80;18.08;;;17.50;99.90;;;;;;6155982;23;20010;-93
2023/05/22 05:32:15;;;;;;;30.55;17.17;;;17.60;99.90;;;;;;6124174;23;20010;-93
2023/05/22 05:35:25;;;;;;;28.92;17.40;;;17.60;99.90;;;;;;6072329;23;20012;-94
2023/05/22 05:38:57;;;;;;;37.42;19.23;;;17.70;99.90;;;;;;6108629;23;20150;-94
2023/05/22 05:45:59;;;;;;;31.88;18.00;;;17.70;99.90;;;;;;6013130;23;20023;-95
2023/05/22 06:19:32;;;;;;;23.10;14.70;;;18.70;99.90;;;;;;6197781;23;20026;-93
